createdAt,value
2018-12-03T00:01:39.189Z,1.30
2018-12-03T00:04:18.748Z,0.80
2018-12-03T00:06:46.359Z,2.23
2018-12-03T00:09:13.704Z,0.90
2018-12-03T00:11:40.984Z,1.20
2018-12-03T00:14:08.248Z,0.87
2018-12-03T00:16:35.613Z,0.70
2018-12-03T00:19:02.942Z,0.80
2018-12-03T00:21:30.252Z,0.60
2018-12-03T00:23:57.651Z,1.00
2018-12-03T00:26:25.014Z,0.87
2018-12-03T00:28:52.338Z,0.70
2018-12-03T00:31:19.645Z,0.70
2018-12-03T00:33:47.002Z,0.70
2018-12-03T00:36:14.338Z,3.90
2018-12-03T00:38:41.667Z,0.87
2018-12-03T00:41:08.941Z,0.70
2018-12-03T00:43:36.297Z,0.60
2018-12-03T00:46:03.658Z,1.17
2018-12-03T00:48:30.975Z,0.70
2018-12-03T00:50:58.255Z,1.37
2018-12-03T00:53:25.580Z,0.80
2018-12-03T00:55:52.806Z,1.10
2018-12-03T00:58:20.079Z,1.13
2018-12-03T01:00:47.478Z,0.83
2018-12-03T01:03:14.924Z,1.90
2018-12-03T01:05:42.302Z,1.50
2018-12-03T01:08:09.712Z,1.50
2018-12-03T01:10:36.995Z,1.20
2018-12-03T01:13:04.800Z,1.00
2018-12-03T01:15:32.071Z,1.73
2018-12-03T01:17:59.391Z,1.23
2018-12-03T01:20:26.776Z,1.93
2018-12-03T01:22:54.045Z,1.50
2018-12-03T01:25:21.339Z,2.03
2018-12-03T01:27:48.574Z,3.10
2018-12-03T01:30:15.932Z,2.63
2018-12-03T01:32:43.235Z,1.97
2018-12-03T01:35:10.435Z,2.03
2018-12-03T01:37:37.930Z,1.70
2018-12-03T01:40:10.150Z,3.00
2018-12-03T01:42:37.457Z,1.10
2018-12-03T01:45:06.931Z,1.40
2018-12-03T01:47:34.141Z,1.60
2018-12-03T01:50:01.399Z,1.53
2018-12-03T01:52:28.731Z,1.00
2018-12-03T01:54:56.030Z,1.50
2018-12-03T01:57:23.286Z,0.70
2018-12-03T01:59:50.631Z,2.20
2018-12-03T02:02:17.887Z,1.10
2018-12-03T02:04:45.211Z,1.70
2018-12-03T02:07:12.569Z,6.53
2018-12-03T02:09:39.875Z,3.20
2018-12-03T02:12:07.102Z,1.53
2018-12-03T02:14:34.375Z,2.07
2018-12-03T02:17:01.668Z,1.87
2018-12-03T02:19:28.926Z,4.33
2018-12-03T02:21:56.203Z,5.80
2018-12-03T02:24:23.423Z,1.60
2018-12-03T02:26:50.724Z,2.90
2018-12-03T02:29:17.967Z,1.43
2018-12-03T02:31:45.267Z,1.43
2018-12-03T02:34:12.551Z,1.10
2018-12-03T02:36:39.862Z,1.73
2018-12-03T02:39:08.127Z,0.80
2018-12-03T02:41:35.750Z,0.80
2018-12-03T02:44:03.061Z,0.80
2018-12-03T02:46:30.384Z,0.90
2018-12-03T02:48:57.980Z,3.07
2018-12-03T02:51:25.244Z,0.83
2018-12-03T02:53:52.587Z,0.90
2018-12-03T02:56:19.848Z,0.90
2018-12-03T02:58:47.049Z,1.07
2018-12-03T03:01:14.371Z,0.70
2018-12-03T03:03:41.673Z,0.90
2018-12-03T03:06:08.959Z,4.57
2018-12-03T03:08:36.261Z,1.20
2018-12-03T03:11:03.540Z,1.10
2018-12-03T03:13:30.819Z,1.03
2018-12-03T03:15:58.069Z,1.37
2018-12-03T03:18:25.348Z,1.50
2018-12-03T03:20:52.600Z,1.70
2018-12-03T03:23:19.872Z,1.00
2018-12-03T03:25:47.186Z,3.90
2018-12-03T03:28:15.207Z,1.40
2018-12-03T03:30:42.421Z,1.00
2018-12-03T03:33:09.706Z,1.73
2018-12-03T03:35:36.979Z,1.67
2018-12-03T03:38:04.388Z,1.20
2018-12-03T03:40:31.879Z,1.67
2018-12-03T03:42:59.929Z,4.03
2018-12-03T03:45:27.396Z,1.40
2018-12-03T03:47:55.278Z,1.73
2018-12-03T03:50:22.781Z,1.67
2018-12-03T03:52:50.353Z,2.50
2018-12-03T03:55:17.911Z,2.40
2018-12-03T03:57:45.422Z,3.57
2018-12-03T04:00:14.650Z,2.83
2018-12-03T04:02:42.113Z,2.43
2018-12-03T04:05:10.560Z,2.43
2018-12-03T04:07:38.348Z,1.83
2018-12-03T04:10:08.650Z,1.40
2018-12-03T04:12:36.095Z,1.63
2018-12-03T04:15:04.327Z,2.70
2018-12-03T04:17:31.818Z,3.17
2018-12-03T04:19:59.236Z,2.37
2018-12-03T04:22:26.632Z,1.77
2018-12-03T04:24:54.637Z,3.43
2018-12-03T04:27:22.023Z,2.77
2018-12-03T04:29:49.408Z,2.80
2018-12-03T04:32:16.833Z,2.60
2018-12-03T04:34:44.334Z,4.43
2018-12-03T04:37:11.751Z,1.70
2018-12-03T04:39:39.151Z,3.07
2018-12-03T04:42:06.548Z,2.40
2018-12-03T04:44:34.032Z,0.97
2018-12-03T04:47:01.569Z,0.70
2018-12-03T04:49:28.927Z,0.70
2018-12-03T04:51:56.379Z,0.80
2018-12-03T04:54:23.809Z,6.20
2018-12-03T04:56:51.208Z,0.60
2018-12-03T04:59:18.701Z,0.60
2018-12-03T05:01:46.104Z,1.63
2018-12-03T05:04:13.562Z,1.10
2018-12-03T05:06:40.941Z,0.80
2018-12-03T05:09:08.502Z,0.80
2018-12-03T05:11:36.431Z,0.60
2018-12-03T05:14:04.021Z,0.90
2018-12-03T05:16:31.320Z,0.60
2018-12-03T05:18:58.606Z,1.27
2018-12-03T05:21:25.907Z,0.60
2018-12-03T05:23:53.166Z,1.27
2018-12-03T05:26:20.499Z,1.67
2018-12-03T05:28:47.844Z,1.10
2018-12-03T05:31:15.124Z,2.50
2018-12-03T05:33:42.417Z,13.23
2018-12-03T05:36:09.745Z,0.70
2018-12-03T05:38:37.014Z,0.97
2018-12-03T05:41:04.454Z,0.67
2018-12-03T05:43:31.734Z,1.27
2018-12-03T05:45:59.019Z,1.10
2018-12-03T05:48:26.313Z,0.70
2018-12-03T05:50:53.607Z,3.07
2018-12-03T05:53:20.905Z,2.60
2018-12-03T05:55:48.309Z,1.23
2018-12-03T05:58:15.595Z,1.27
2018-12-03T06:00:42.888Z,1.37
2018-12-03T06:03:10.216Z,1.77
2018-12-03T06:05:37.502Z,3.67
2018-12-03T06:08:05.089Z,3.33
2018-12-03T06:10:33.035Z,4.80
2018-12-03T06:13:00.405Z,4.43
2018-12-03T06:15:27.683Z,5.03
2018-12-03T06:17:54.986Z,4.50
2018-12-03T06:20:22.663Z,5.13
2018-12-03T06:22:51.432Z,3.13
2018-12-03T06:25:20.187Z,5.53
2018-12-03T06:27:47.474Z,4.97
2018-12-03T06:30:16.049Z,4.30
2018-12-03T06:32:43.299Z,6.20
2018-12-03T06:35:11.440Z,6.20
2018-12-03T06:37:38.846Z,5.17
2018-12-03T06:40:24.661Z,5.57
2018-12-03T06:42:51.980Z,4.57
2018-12-03T06:45:20.277Z,3.87
2018-12-03T06:48:01.135Z,4.30
2018-12-03T06:50:28.471Z,19.23
2018-12-03T06:52:55.826Z,2.67
2018-12-03T06:55:23.117Z,3.30
2018-12-03T06:57:50.439Z,2.43
2018-12-03T07:00:20.060Z,2.00
2018-12-03T07:02:47.254Z,1.40
2018-12-03T07:05:14.493Z,1.10
2018-12-03T07:07:42.767Z,1.10
2018-12-03T07:10:11.643Z,0.90
2018-12-03T07:12:38.902Z,1.43
2018-12-03T07:15:08.171Z,0.70
2018-12-03T07:17:35.479Z,1.90
2018-12-03T07:20:03.961Z,2.73
2018-12-03T07:22:31.260Z,1.20
2018-12-03T07:24:58.538Z,1.17
2018-12-03T07:27:25.804Z,1.77
2018-12-03T07:29:53.165Z,2.60
2018-12-03T07:32:54.223Z,3.63
2018-12-03T07:35:22.844Z,3.77
2018-12-03T07:37:52.527Z,3.30
2018-12-03T07:40:20.494Z,3.10
2018-12-03T07:42:47.962Z,5.63
2018-12-03T07:45:18.607Z,7.00
2018-12-03T07:47:46.391Z,9.73
2018-12-03T07:50:15.224Z,6.87
2018-12-03T07:52:43.276Z,8.60
2018-12-03T07:55:14.006Z,7.03
2018-12-03T07:57:44.135Z,8.30
2018-12-03T08:00:16.260Z,7.83
2018-12-03T08:02:45.662Z,8.40
2018-12-03T08:05:13.159Z,7.53
2018-12-03T08:07:40.515Z,8.20
2018-12-03T08:10:14.643Z,11.70
2018-12-03T08:12:42.199Z,7.33
2018-12-03T08:15:13.607Z,9.90
2018-12-03T08:17:44.451Z,6.10
2018-12-03T08:20:16.997Z,6.33
2018-12-03T08:22:45.480Z,6.10
2018-12-03T08:25:12.851Z,6.00
2018-12-03T08:27:40.459Z,4.80
2018-12-03T08:30:10.827Z,5.23
2018-12-03T08:32:38.639Z,4.00
2018-12-03T08:35:10.352Z,3.67
2018-12-03T08:37:38.969Z,5.23
2018-12-03T08:40:12.868Z,4.90
2018-12-03T08:42:46.687Z,3.90
2018-12-03T08:45:15.194Z,2.53
2018-12-03T08:47:43.704Z,3.77
2018-12-03T08:50:15.479Z,3.07
2018-12-03T08:52:42.844Z,3.13
2018-12-03T08:55:12.554Z,2.07
2018-12-03T08:57:40.788Z,2.40
2018-12-03T09:00:13.883Z,2.43
2018-12-03T09:02:57.191Z,1.80
2018-12-03T09:05:27.094Z,5.87
2018-12-03T09:07:54.452Z,2.17
2018-12-03T09:10:23.036Z,1.60
2018-12-03T09:12:52.281Z,2.10
2018-12-03T09:15:21.300Z,2.77
2018-12-03T09:17:48.679Z,5.40
2018-12-03T09:20:16.925Z,2.10
2018-12-03T09:22:44.517Z,1.70
2018-12-03T09:25:19.074Z,1.40
2018-12-03T09:27:46.646Z,0.97
2018-12-03T09:30:14.214Z,3.10
2018-12-03T09:32:43.012Z,3.17
2018-12-03T09:35:10.916Z,2.90
2018-12-03T09:37:39.226Z,2.23
2018-12-03T09:40:11.121Z,0.90
2018-12-03T09:42:38.980Z,2.10
2018-12-03T09:45:12.635Z,2.03
2018-12-03T09:47:40.236Z,1.87
2018-12-03T09:50:17.356Z,2.20
2018-12-03T09:52:46.512Z,2.10
2018-12-03T09:55:17.294Z,2.50
2018-12-03T09:58:19.087Z,1.90
2018-12-03T10:00:46.559Z,4.10
2018-12-03T10:03:21.364Z,2.90
2018-12-03T10:05:50.638Z,2.30
2018-12-03T10:08:25.199Z,2.80
2018-12-03T10:10:55.512Z,4.60
2018-12-03T10:13:23.037Z,2.17
2018-12-03T10:15:50.862Z,2.80
2018-12-03T10:18:18.886Z,1.97
2018-12-03T10:20:49.352Z,2.70
2018-12-03T10:23:16.776Z,2.27
2018-12-03T10:25:46.067Z,2.43
2018-12-03T10:28:13.466Z,3.53
2018-12-03T10:30:42.439Z,9.90
2018-12-03T10:33:15.811Z,1.90
2018-12-03T10:35:44.343Z,1.33
2018-12-03T10:38:17.714Z,2.47
2018-12-03T10:40:49.584Z,4.30
2018-12-03T10:43:17.328Z,1.60
2018-12-03T10:45:44.646Z,1.80
2018-12-03T10:48:12.749Z,1.77
2018-12-03T10:50:40.372Z,1.10
2018-12-03T10:53:08.307Z,1.53
2018-12-03T10:55:41.392Z,1.20
2018-12-03T10:58:10.331Z,0.70
2018-12-03T11:00:43.842Z,3.90
2018-12-03T11:03:13.853Z,1.00
2018-12-03T11:05:48.543Z,1.57
2018-12-03T11:08:21.164Z,0.60
2018-12-03T11:10:48.728Z,2.53
2018-12-03T11:13:16.507Z,1.77
2018-12-03T11:15:44.099Z,1.10
2018-12-03T11:18:12.491Z,1.00
2018-12-03T11:20:40.661Z,1.70
2018-12-03T11:23:11.396Z,1.40
2018-12-03T11:25:41.023Z,2.60
2018-12-03T11:28:11.423Z,4.07
2018-12-03T11:30:46.377Z,1.47
2018-12-03T11:33:21.745Z,2.83
2018-12-03T11:35:50.115Z,2.40
2018-12-03T11:39:48.881Z,1.70
2018-12-03T11:42:16.388Z,1.37
2018-12-03T11:44:44.516Z,2.47
2018-12-03T11:47:13.363Z,2.43
2018-12-03T11:49:41.439Z,3.77
2018-12-03T11:52:08.980Z,1.30
2018-12-03T11:54:37.004Z,5.90
2018-12-03T11:57:06.381Z,1.97
2018-12-03T11:59:35.124Z,2.40
2018-12-03T12:02:03.408Z,2.23
2018-12-03T12:04:33.793Z,1.30
2018-12-03T12:07:01.377Z,1.50
2018-12-03T12:09:28.787Z,2.40
2018-12-03T12:11:56.239Z,1.53
2018-12-03T12:14:25.427Z,4.30
2018-12-03T12:16:52.834Z,2.10
2018-12-03T12:19:20.463Z,1.10
2018-12-03T12:21:47.962Z,1.63
2018-12-03T12:24:15.300Z,1.50
2018-12-03T12:26:42.650Z,1.00
2018-12-03T12:29:11.246Z,1.83
2018-12-03T12:31:38.730Z,1.60
2018-12-03T12:34:06.446Z,1.60
2018-12-03T12:36:34.865Z,2.80
2018-12-03T12:39:08.706Z,4.07
2018-12-03T12:41:37.409Z,1.00
2018-12-03T12:44:06.703Z,2.00
2018-12-03T12:46:34.619Z,2.27
2018-12-03T12:49:02.502Z,0.70
2018-12-03T12:51:29.868Z,0.70
2018-12-03T12:53:57.233Z,0.90
2018-12-03T12:56:24.675Z,0.80
2018-12-03T12:58:52.036Z,0.90
2018-12-03T13:01:20.718Z,0.80
2018-12-03T13:03:48.042Z,1.10
2018-12-03T13:06:15.412Z,0.77
2018-12-03T13:08:42.833Z,1.00
2018-12-03T13:11:12.131Z,0.90
2018-12-03T13:13:39.627Z,1.03
2018-12-03T13:16:07.396Z,2.60
2018-12-03T13:18:34.855Z,0.70
2018-12-03T13:21:02.266Z,1.23
2018-12-03T13:23:30.181Z,1.63
2018-12-03T13:25:58.424Z,1.60
2018-12-03T13:28:26.312Z,2.40
2018-12-03T13:30:53.748Z,1.00
2018-12-03T13:33:21.492Z,0.70
2018-12-03T13:35:49.781Z,3.73
2018-12-03T13:38:17.098Z,1.60
2018-12-03T13:40:44.911Z,2.30
2018-12-03T13:43:12.526Z,1.20
2018-12-03T13:45:40.039Z,0.97
2018-12-03T13:48:08.259Z,0.77
2018-12-03T13:50:37.614Z,2.17
2018-12-03T13:53:06.782Z,1.07
2018-12-03T13:55:34.107Z,1.20
2018-12-03T13:58:02.992Z,0.80
2018-12-03T14:00:30.412Z,1.57
2018-12-03T14:03:04.954Z,1.07
2018-12-03T14:05:37.122Z,1.47
2018-12-03T14:08:17.315Z,1.67
2018-12-03T14:10:56.367Z,1.37
2018-12-03T14:13:53.203Z,0.90
2018-12-03T14:16:25.507Z,0.60
2018-12-03T14:18:56.755Z,0.70
2018-12-03T14:21:28.864Z,1.30
2018-12-03T14:23:57.943Z,1.20
2018-12-03T14:26:25.771Z,0.70
2018-12-03T14:28:53.111Z,1.30
2018-12-03T14:31:20.558Z,1.87
2018-12-03T14:33:48.244Z,4.07
2018-12-03T14:36:15.886Z,0.93
2018-12-03T14:38:43.705Z,1.27
2018-12-03T14:41:11.179Z,1.67
2018-12-03T14:43:39.207Z,1.63
2018-12-03T14:46:06.885Z,2.00
2018-12-03T14:48:34.838Z,1.83
2018-12-03T14:51:02.816Z,1.33
2018-12-03T14:53:30.258Z,1.53
2018-12-03T14:55:57.794Z,2.10
2018-12-03T14:58:26.138Z,2.00
2018-12-03T15:00:53.530Z,1.93
2018-12-03T15:03:22.671Z,3.83
2018-12-03T15:05:51.875Z,2.13
2018-12-03T15:08:19.919Z,3.57
2018-12-03T15:10:47.267Z,5.37
2018-12-03T15:13:15.695Z,3.87
2018-12-03T15:15:43.732Z,2.30
2018-12-03T15:18:11.176Z,4.07
2018-12-03T15:20:40.054Z,4.20
2018-12-03T15:23:08.111Z,2.93
2018-12-03T15:25:36.298Z,4.40
2018-12-03T15:28:03.849Z,5.23
2018-12-03T15:30:31.582Z,3.33
2018-12-03T15:33:00.002Z,3.97
2018-12-03T15:35:28.139Z,3.67
2018-12-03T15:37:56.490Z,3.90
2018-12-03T15:40:24.039Z,7.10
2018-12-03T15:42:51.470Z,7.10
2018-12-03T15:45:20.227Z,6.40
2018-12-03T15:47:47.730Z,1.90
2018-12-03T15:50:16.299Z,3.13
2018-12-03T15:52:43.730Z,3.27
2018-12-03T15:55:12.155Z,3.43
2018-12-03T15:57:39.886Z,2.43
2018-12-03T16:00:10.727Z,3.50
2018-12-03T16:02:38.045Z,2.50
2018-12-03T16:05:08.932Z,2.87
2018-12-03T16:07:36.550Z,4.50
2018-12-03T16:10:07.828Z,6.13
2018-12-03T16:12:35.187Z,2.40
2018-12-03T16:15:02.857Z,3.43
2018-12-03T16:17:30.780Z,5.57
2018-12-03T16:19:58.210Z,3.73
2018-12-03T16:22:25.684Z,3.23
2018-12-03T16:24:53.902Z,2.83
2018-12-03T16:27:21.263Z,5.53
2018-12-03T16:29:49.766Z,3.40
2018-12-03T16:32:17.852Z,3.00
2018-12-03T16:34:45.483Z,3.10
2018-12-03T16:37:12.933Z,3.67
2018-12-03T16:39:40.610Z,5.23
2018-12-03T16:42:08.107Z,3.87
2018-12-03T16:44:35.492Z,3.00
2018-12-03T16:47:02.981Z,2.93
2018-12-03T16:49:30.376Z,3.10
2018-12-03T16:51:57.766Z,3.10
2018-12-03T16:54:25.622Z,2.80
2018-12-03T16:56:53.105Z,4.77
2018-12-03T16:59:20.430Z,3.53
2018-12-03T17:01:48.775Z,3.30
2018-12-03T17:04:17.006Z,5.20
2018-12-03T17:06:44.492Z,3.77
2018-12-03T17:09:12.391Z,5.30
2018-12-03T17:11:41.638Z,3.83
2018-12-03T17:14:08.995Z,4.60
2018-12-03T17:16:37.460Z,3.37
2018-12-03T17:19:04.838Z,4.03
2018-12-03T17:22:03.967Z,4.23
2018-12-03T17:24:38.815Z,3.97
2018-12-03T17:27:06.483Z,5.10
2018-12-03T17:29:34.634Z,4.80
2018-12-03T17:32:02.066Z,3.70
2018-12-03T17:34:30.829Z,5.70
2018-12-03T17:36:59.533Z,6.17
2018-12-03T17:39:26.962Z,6.00
2018-12-03T17:41:56.350Z,7.27
2018-12-03T17:44:24.311Z,5.50
2018-12-03T17:46:53.611Z,15.90
2018-12-03T17:49:22.358Z,7.50
2018-12-03T17:51:50.641Z,7.70
2018-12-03T17:54:18.305Z,9.23
2018-12-03T17:56:45.647Z,10.27
2018-12-03T17:59:13.711Z,9.13
2018-12-03T18:01:41.128Z,10.87
2018-12-03T18:04:13.165Z,11.03
2018-12-03T18:06:41.623Z,10.80
2018-12-03T18:09:09.531Z,13.77
2018-12-03T18:11:36.862Z,13.30
2018-12-03T18:14:04.751Z,11.43
2018-12-03T18:16:32.772Z,13.00
2018-12-03T18:19:00.155Z,13.60
2018-12-03T18:21:28.704Z,14.73
2018-12-03T18:23:55.990Z,12.70
2018-12-03T18:26:24.551Z,15.20
2018-12-03T18:28:51.944Z,12.90
2018-12-03T18:31:19.342Z,14.90
2018-12-03T18:33:47.057Z,14.50
2018-12-03T18:36:14.652Z,15.70
2018-12-03T18:38:42.477Z,11.53
2018-12-03T18:41:10.867Z,13.90
2018-12-03T18:43:38.272Z,12.37
2018-12-03T18:46:05.990Z,11.70
2018-12-03T18:48:33.736Z,11.90
2018-12-03T18:51:01.322Z,11.37
2018-12-03T18:53:29.672Z,10.67
2018-12-03T18:55:57.572Z,14.90
2018-12-03T18:58:35.764Z,12.50
2018-12-03T19:01:03.423Z,12.33
2018-12-03T19:03:31.154Z,11.23
2018-12-03T19:05:58.772Z,10.47
2018-12-03T19:08:26.126Z,13.23
2018-12-03T19:10:53.650Z,9.60
2018-12-03T19:13:20.932Z,10.27
2018-12-03T19:15:48.310Z,9.70
2018-12-03T19:18:15.732Z,11.77
2018-12-03T19:20:43.147Z,9.53
2018-12-03T19:23:11.864Z,13.23
2018-12-03T19:25:40.292Z,8.63
2018-12-03T19:28:08.271Z,10.23
2018-12-03T19:30:35.571Z,8.43
2018-12-03T19:33:03.504Z,9.97
2018-12-03T19:35:31.516Z,9.03
2018-12-03T19:37:59.246Z,8.73
2018-12-03T19:40:27.043Z,6.97
2018-12-03T19:42:54.405Z,10.17
2018-12-03T19:45:21.848Z,7.80
2018-12-03T19:47:49.886Z,9.57
2018-12-03T19:50:17.982Z,8.00
2018-12-03T19:52:48.420Z,9.33
2018-12-03T19:55:16.246Z,11.37
2018-12-03T19:57:46.529Z,8.37
2018-12-03T20:00:14.268Z,8.70
2018-12-03T20:02:41.747Z,9.67
2018-12-03T20:05:15.621Z,12.03
2018-12-03T20:07:42.991Z,6.57
2018-12-03T20:10:10.472Z,17.37
2018-12-03T20:12:39.356Z,25.80
2018-12-03T20:15:08.806Z,11.07
2018-12-03T20:17:38.415Z,10.40
2018-12-03T20:20:10.365Z,8.07
2018-12-03T20:22:46.584Z,8.63
2018-12-03T20:25:18.680Z,10.30
2018-12-03T20:27:53.559Z,9.20
2018-12-03T20:33:03.460Z,11.70
2018-12-03T20:35:39.898Z,12.20
2018-12-03T20:38:12.561Z,10.97
2018-12-03T20:40:53.635Z,11.37
2018-12-03T20:43:24.148Z,10.00
2018-12-03T20:48:00.442Z,9.80
2018-12-03T20:50:43.624Z,11.50
2018-12-03T20:53:12.500Z,11.87
2018-12-03T20:55:42.926Z,7.97
2018-12-03T20:58:10.443Z,5.80
2018-12-03T21:00:38.939Z,7.40
2018-12-03T21:03:06.660Z,5.97
2018-12-03T21:05:34.699Z,10.77
2018-12-03T21:08:02.433Z,6.00
2018-12-03T21:10:30.263Z,8.13
2018-12-03T21:12:57.752Z,6.10
2018-12-03T21:15:25.368Z,5.97
2018-12-03T21:17:52.777Z,4.83
2018-12-03T21:20:29.703Z,5.20
2018-12-03T21:22:57.949Z,4.97
2018-12-03T21:25:25.265Z,6.20
2018-12-03T21:27:53.002Z,4.87
2018-12-03T21:30:20.830Z,4.23
2018-12-03T21:32:48.792Z,5.20
2018-12-03T21:35:17.082Z,6.77
2018-12-03T21:37:46.014Z,3.73
2018-12-03T21:40:14.567Z,6.27
2018-12-03T21:42:42.856Z,8.53
2018-12-03T21:45:10.143Z,5.60
2018-12-03T21:47:38.855Z,7.07
2018-12-03T21:50:07.216Z,6.60
2018-12-03T21:52:35.031Z,5.80
2018-12-03T21:55:03.065Z,4.80
2018-12-03T21:57:31.124Z,6.63
2018-12-03T21:59:58.479Z,8.00
2018-12-03T22:02:26.727Z,5.93
2018-12-03T22:04:54.023Z,5.30
2018-12-03T22:07:21.427Z,3.30
2018-12-03T22:09:48.815Z,3.00
2018-12-03T22:12:17.134Z,4.23
2018-12-03T22:14:46.515Z,2.90
2018-12-03T22:17:13.891Z,7.30
2018-12-03T22:19:41.295Z,6.53
2018-12-03T22:22:12.553Z,4.00
2018-12-03T22:24:40.944Z,3.53
2018-12-03T22:27:09.999Z,2.00
2018-12-03T22:29:38.959Z,1.50
2018-12-03T22:32:08.189Z,2.10
2018-12-03T22:34:35.739Z,3.77
2018-12-03T22:37:03.055Z,1.63
2018-12-03T22:39:30.502Z,1.20
2018-12-03T22:41:58.358Z,1.40
2018-12-03T22:44:26.246Z,7.30
2018-12-03T22:46:55.474Z,1.67
2018-12-03T22:49:23.700Z,2.50
2018-12-03T22:51:52.104Z,3.30
2018-12-03T22:54:19.399Z,3.37
2018-12-03T22:56:47.444Z,4.10
2018-12-03T22:59:15.068Z,5.00
2018-12-03T23:01:42.467Z,3.10
2018-12-03T23:04:18.404Z,1.57
2018-12-03T23:06:45.787Z,2.60
2018-12-03T23:09:13.154Z,3.20
2018-12-03T23:11:40.981Z,3.73
2018-12-03T23:14:08.295Z,1.67
2018-12-03T23:16:36.347Z,6.00
2018-12-03T23:19:03.910Z,4.40
2018-12-03T23:21:31.978Z,3.00
2018-12-03T23:23:59.953Z,2.60
2018-12-03T23:26:27.370Z,3.40
2018-12-03T23:28:54.827Z,2.33
2018-12-03T23:31:22.571Z,1.00
2018-12-03T23:33:50.917Z,3.37
2018-12-03T23:36:19.494Z,7.67
2018-12-03T23:38:46.945Z,2.70
2018-12-03T23:41:14.284Z,5.83
2018-12-03T23:43:41.631Z,2.17
2018-12-03T23:46:08.933Z,2.50
2018-12-03T23:48:36.392Z,3.57
2018-12-03T23:51:03.695Z,3.63
2018-12-03T23:53:31.439Z,4.67
2018-12-03T23:55:58.870Z,6.50
2018-12-03T23:58:27.099Z,5.53
